createdAt,value
2019-01-20T00:00:31.493Z,43.40
2019-01-20T00:03:00.049Z,33.53
2019-01-20T00:05:29.086Z,28.50
2019-01-20T00:07:57.544Z,44.93
2019-01-20T00:10:26.023Z,34.25
2019-01-20T00:13:13.915Z,34.88
2019-01-20T00:15:43.268Z,41.63
2019-01-20T00:18:11.764Z,43.30
2019-01-20T00:20:40.214Z,42.80
2019-01-20T00:23:09.708Z,39.43
2019-01-20T00:25:57.614Z,32.98
2019-01-20T00:28:45.418Z,34.70
2019-01-20T00:31:13.913Z,35.53
2019-01-20T00:33:42.449Z,34.77
2019-01-20T00:36:30.302Z,33.03
2019-01-20T00:38:58.773Z,34.20
2019-01-20T00:41:46.681Z,26.83
2019-01-20T00:44:15.175Z,35.80
2019-01-20T00:46:43.710Z,31.33
2019-01-20T00:49:12.233Z,42.20
2019-01-20T00:52:00.052Z,29.93
2019-01-20T00:54:47.893Z,30.87
2019-01-20T01:00:44.239Z,30.57
2019-01-20T01:03:32.091Z,35.23
2019-01-20T01:09:09.295Z,29.53
2019-01-20T01:11:37.979Z,30.07
2019-01-20T01:14:06.567Z,34.13
2019-01-20T01:16:35.043Z,27.70
2019-01-20T01:19:03.516Z,37.10
2019-01-20T01:21:31.980Z,34.67
2019-01-20T01:24:19.821Z,37.60
2019-01-20T01:27:07.630Z,30.40
2019-01-20T01:29:36.142Z,30.37
2019-01-20T01:32:04.914Z,32.57
2019-01-20T01:34:33.361Z,37.53
2019-01-20T01:37:13.717Z,29.37
2019-01-20T01:39:54.314Z,39.77
2019-01-20T01:42:22.777Z,40.30
2019-01-20T01:44:51.278Z,57.40
2019-01-20T01:47:39.187Z,43.47
2019-01-20T01:50:26.991Z,34.80
2019-01-20T01:53:14.827Z,63.30
2019-01-20T01:55:43.359Z,40.77
2019-01-20T01:58:11.829Z,46.83
2019-01-20T02:00:40.317Z,46.20
2019-01-20T02:03:08.869Z,41.13
2019-01-20T02:05:37.424Z,40.20
2019-01-20T02:08:25.265Z,54.07
2019-01-20T02:11:13.116Z,51.53
2019-01-20T02:13:41.568Z,32.42
2019-01-20T02:16:10.103Z,34.83
2019-01-20T02:18:38.600Z,43.00
2019-01-20T02:21:07.316Z,32.50
2019-01-20T02:23:35.812Z,34.40
2019-01-20T02:26:04.300Z,45.70
2019-01-20T02:28:52.109Z,39.87
2019-01-20T02:31:39.942Z,40.67
2019-01-20T02:34:08.401Z,37.60
2019-01-20T02:36:36.879Z,41.33
2019-01-20T02:39:06.364Z,40.27
2019-01-20T02:41:55.250Z,41.00
2019-01-20T02:44:24.415Z,48.73
2019-01-20T02:47:12.224Z,43.90
2019-01-20T02:49:40.709Z,35.90
2019-01-20T02:52:28.517Z,47.73
2019-01-20T02:54:57.013Z,41.27
2019-01-20T02:57:25.467Z,37.60
2019-01-20T03:00:34.013Z,29.60
2019-01-20T03:03:21.822Z,38.37
2019-01-20T03:05:50.307Z,35.07
2019-01-20T03:08:18.803Z,34.37
2019-01-20T03:11:06.600Z,45.03
2019-01-20T03:13:35.152Z,35.30
2019-01-20T03:16:03.969Z,36.83
2019-01-20T03:18:34.211Z,34.87
2019-01-20T03:21:22.047Z,44.07
2019-01-20T03:23:50.620Z,40.23
2019-01-20T03:26:19.087Z,31.63
2019-01-20T03:28:47.538Z,31.23
2019-01-20T03:31:16.287Z,39.40
2019-01-20T03:33:44.816Z,35.07
2019-01-20T03:39:25.813Z,29.87
2019-01-20T03:41:54.305Z,35.23
2019-01-20T03:44:22.778Z,38.33
2019-01-20T03:46:51.233Z,37.10
2019-01-20T03:49:20.398Z,34.20
2019-01-20T03:52:08.303Z,32.60
2019-01-20T03:54:36.775Z,26.47
2019-01-20T03:57:06.981Z,29.00
2019-01-20T03:59:54.787Z,35.58
2019-01-20T04:05:37.728Z,34.47
2019-01-20T04:08:25.600Z,33.73
2019-01-20T04:10:54.166Z,41.00
2019-01-20T04:13:41.983Z,29.77
2019-01-20T04:16:10.615Z,42.73
2019-01-20T04:18:39.076Z,34.60
2019-01-20T04:24:01.051Z,31.10
2019-01-20T04:26:29.522Z,32.00
2019-01-20T04:28:57.988Z,30.30
2019-01-20T04:31:26.470Z,37.73
2019-01-20T04:34:15.148Z,32.67
2019-01-20T04:36:55.809Z,39.17
2019-01-20T04:39:24.338Z,34.53
2019-01-20T04:41:53.170Z,33.73
2019-01-20T04:44:21.622Z,35.33
2019-01-20T04:46:50.079Z,35.90
2019-01-20T04:49:37.906Z,41.60
2019-01-20T04:52:06.359Z,45.30
2019-01-20T04:54:46.778Z,47.47
2019-01-20T04:57:27.567Z,42.20
2019-01-20T05:00:07.960Z,45.00
2019-01-20T05:02:36.541Z,38.77
2019-01-20T05:05:05.938Z,30.50
2019-01-20T05:07:53.849Z,44.77
2019-01-20T05:10:23.303Z,31.20
2019-01-20T05:13:11.125Z,36.07
2019-01-20T05:15:58.933Z,34.30
2019-01-20T05:18:46.763Z,36.30
2019-01-20T05:21:15.252Z,36.50
2019-01-20T05:24:03.094Z,34.37
2019-01-20T05:26:50.928Z,64.85
2019-01-20T05:35:25.768Z,46.63
2019-01-20T05:37:54.267Z,42.30
2019-01-20T05:40:23.356Z,42.23
2019-01-20T05:43:11.158Z,37.13
2019-01-20T05:45:39.648Z,38.90
2019-01-20T05:48:08.140Z,42.40
2019-01-20T05:50:36.656Z,58.48
2019-01-20T05:53:24.502Z,45.60
2019-01-20T05:56:04.851Z,46.00
2019-01-20T05:58:45.213Z,46.92
2019-01-20T06:01:13.674Z,33.23
2019-01-20T06:03:42.181Z,39.98
2019-01-20T06:06:10.635Z,42.23
2019-01-20T06:08:39.145Z,35.70
2019-01-20T06:11:07.631Z,39.20
2019-01-20T06:13:36.127Z,38.33
2019-01-20T06:16:04.661Z,29.57
2019-01-20T06:18:33.121Z,30.97
2019-01-20T06:21:20.977Z,39.43
2019-01-20T06:23:49.497Z,36.80
2019-01-20T06:26:17.957Z,34.60
2019-01-20T06:28:46.463Z,34.90
2019-01-20T06:31:34.294Z,31.50
2019-01-20T06:34:02.865Z,37.33
2019-01-20T06:36:31.309Z,27.90
2019-01-20T06:38:59.797Z,31.03
2019-01-20T06:44:54.578Z,26.82
2019-01-20T06:47:35.002Z,34.20
2019-01-20T06:50:04.756Z,35.40
2019-01-20T06:52:33.220Z,28.33
2019-01-20T06:55:01.720Z,34.50
2019-01-20T06:57:31.026Z,25.30
2019-01-20T06:59:59.479Z,24.10
2019-01-20T07:02:27.944Z,23.17
2019-01-20T07:05:15.876Z,24.27
2019-01-20T07:08:03.775Z,24.70
2019-01-20T07:10:51.579Z,37.17
2019-01-20T07:13:20.132Z,41.83
2019-01-20T07:15:48.629Z,32.10
2019-01-20T07:18:36.453Z,23.77
2019-01-20T07:21:05.083Z,24.12
2019-01-20T07:23:33.555Z,31.40
2019-01-20T07:26:21.464Z,24.83
2019-01-20T07:28:49.915Z,37.57
2019-01-20T07:31:37.758Z,32.50
2019-01-20T07:34:25.625Z,54.03
2019-01-20T07:37:13.495Z,29.83
2019-01-20T07:40:01.305Z,45.70
2019-01-20T07:42:29.948Z,37.80
2019-01-20T07:44:58.424Z,46.20
2019-01-20T07:47:46.252Z,55.33
2019-01-20T07:50:26.632Z,52.43
2019-01-20T07:53:07.734Z,39.97
2019-01-20T07:55:36.277Z,33.60
2019-01-20T07:58:05.000Z,28.43
2019-01-20T08:00:33.477Z,25.37
2019-01-20T08:03:02.110Z,24.40
2019-01-20T08:05:50.006Z,23.20
2019-01-20T08:08:18.573Z,24.83
2019-01-20T08:10:47.038Z,23.70
2019-01-20T08:13:35.183Z,21.97
2019-01-20T08:16:04.067Z,25.60
2019-01-20T08:18:32.523Z,23.23
2019-01-20T08:21:01.029Z,21.05
2019-01-20T08:23:48.819Z,27.50
2019-01-20T08:26:36.673Z,34.38
2019-01-20T08:29:45.206Z,31.57
2019-01-20T08:32:13.677Z,20.67
2019-01-20T08:35:01.523Z,23.90
2019-01-20T08:37:29.995Z,21.30
2019-01-20T08:39:58.449Z,30.40
2019-01-20T08:42:26.952Z,23.70
2019-01-20T08:48:18.477Z,18.27
2019-01-20T08:50:46.949Z,22.17
2019-01-20T08:53:15.474Z,20.23
2019-01-20T08:55:44.200Z,18.52
2019-01-20T08:58:12.915Z,15.83
2019-01-20T09:00:41.547Z,20.90
2019-01-20T09:03:10.014Z,23.97
2019-01-20T09:05:38.648Z,25.90
2019-01-20T09:08:26.460Z,24.80
2019-01-20T09:10:55.226Z,25.10
2019-01-20T09:13:43.040Z,42.90
2019-01-20T09:16:11.882Z,28.38
2019-01-20T09:18:40.355Z,24.40
2019-01-20T09:24:02.676Z,24.90
2019-01-20T09:26:50.556Z,33.37
2019-01-20T09:29:19.231Z,57.43
2019-01-20T09:32:07.067Z,37.70
2019-01-20T09:34:35.647Z,25.00
2019-01-20T09:37:04.111Z,29.47
2019-01-20T09:39:32.568Z,31.47
2019-01-20T09:42:20.425Z,27.60
2019-01-20T09:45:28.963Z,30.20
2019-01-20T09:48:16.812Z,28.23
2019-01-20T09:51:04.723Z,26.68
2019-01-20T09:53:52.640Z,31.47
2019-01-20T09:56:40.454Z,30.20
2019-01-20T09:59:28.377Z,25.10
2019-01-20T10:01:56.916Z,26.97
2019-01-20T10:04:25.462Z,27.30
2019-01-20T10:06:53.943Z,28.00
2019-01-20T10:09:22.419Z,26.13
2019-01-20T10:12:10.258Z,44.80
2019-01-20T10:14:39.019Z,20.57
2019-01-20T10:17:26.847Z,22.05
2019-01-20T10:20:35.469Z,19.43
2019-01-20T10:23:04.643Z,19.77
2019-01-20T10:25:52.455Z,16.73
2019-01-20T10:28:21.035Z,17.30
2019-01-20T10:30:49.614Z,17.37
2019-01-20T10:33:18.130Z,14.20
2019-01-20T10:35:50.789Z,13.28
2019-01-20T10:38:38.620Z,16.07
2019-01-20T10:41:07.455Z,19.13
2019-01-20T10:43:35.914Z,22.83
2019-01-20T10:46:23.755Z,15.80
2019-01-20T10:48:52.209Z,14.27
2019-01-20T10:51:40.029Z,17.03
2019-01-20T10:54:08.471Z,11.07
2019-01-20T10:56:56.298Z,12.53
2019-01-20T10:59:24.744Z,16.03
2019-01-20T11:01:53.199Z,12.77
2019-01-20T11:04:21.690Z,15.47
2019-01-20T11:07:09.499Z,15.93
2019-01-20T11:09:57.330Z,12.43
2019-01-20T11:12:25.782Z,13.60
2019-01-20T11:14:54.239Z,17.53
2019-01-20T11:17:22.722Z,15.90
2019-01-20T11:19:51.235Z,16.03
2019-01-20T11:22:19.715Z,13.80
2019-01-20T11:25:28.271Z,16.10
2019-01-20T11:27:56.878Z,12.80
2019-01-20T11:30:25.552Z,12.80
2019-01-20T11:32:54.120Z,16.00
2019-01-20T11:35:41.921Z,11.07
2019-01-20T11:38:29.818Z,11.87
2019-01-20T11:41:17.621Z,9.63
2019-01-20T11:43:46.109Z,10.87
2019-01-20T11:46:33.911Z,14.30
2019-01-20T11:49:02.393Z,9.68
2019-01-20T11:51:50.197Z,13.20
2019-01-20T11:54:18.693Z,12.93
2019-01-20T11:56:47.147Z,8.00
2019-01-20T11:59:15.642Z,10.10
2019-01-20T12:01:44.086Z,7.50
2019-01-20T12:04:31.926Z,6.80
2019-01-20T12:07:19.719Z,6.65
2019-01-20T12:10:28.266Z,6.83
2019-01-20T12:12:58.348Z,7.20
2019-01-20T12:15:46.252Z,6.43
2019-01-20T12:18:34.050Z,6.33
2019-01-20T12:21:21.946Z,4.45
2019-01-20T12:26:57.297Z,5.30
2019-01-20T12:29:25.830Z,5.93
2019-01-20T12:31:54.302Z,20.43
2019-01-20T12:34:22.780Z,9.63
2019-01-20T12:37:10.630Z,8.13
2019-01-20T12:39:58.468Z,27.40
2019-01-20T12:42:46.262Z,8.00
2019-01-20T12:45:14.896Z,7.93
2019-01-20T12:48:02.781Z,9.23
2019-01-20T12:50:31.245Z,6.07
2019-01-20T12:52:59.693Z,4.67
2019-01-20T12:55:28.340Z,5.17
2019-01-20T12:57:56.855Z,7.87
2019-01-20T13:00:25.400Z,15.75
2019-01-20T13:02:53.910Z,6.37
2019-01-20T13:05:22.357Z,7.60
2019-01-20T13:07:50.803Z,5.50
2019-01-20T13:10:20.132Z,5.17
2019-01-20T13:12:48.668Z,8.73
2019-01-20T13:15:36.554Z,6.25
2019-01-20T13:18:05.171Z,7.47
2019-01-20T13:20:53.079Z,12.70
2019-01-20T13:23:40.978Z,46.03
2019-01-20T13:26:09.450Z,19.63
2019-01-20T13:28:39.028Z,21.53
2019-01-20T13:31:26.883Z,73.53
2019-01-20T13:33:55.337Z,23.03
2019-01-20T13:36:43.186Z,20.37
2019-01-20T13:39:11.967Z,20.83
2019-01-20T13:41:59.810Z,83.83
2019-01-20T13:44:47.628Z,62.60
2019-01-20T13:47:16.111Z,29.40
2019-01-20T13:49:44.702Z,36.10
2019-01-20T13:52:13.241Z,27.20
2019-01-20T13:54:41.726Z,36.30
2019-01-20T13:57:10.193Z,31.43
2019-01-20T13:59:38.704Z,25.40
2019-01-20T14:02:07.458Z,22.70
2019-01-20T14:04:35.951Z,22.07
2019-01-20T14:07:23.770Z,21.50
2019-01-20T14:10:32.304Z,25.97
2019-01-20T14:13:20.155Z,31.70
2019-01-20T14:16:08.081Z,32.23
2019-01-20T14:18:55.918Z,35.90
2019-01-20T14:21:24.411Z,30.63
2019-01-20T14:23:53.588Z,27.80
2019-01-20T14:26:22.056Z,26.97
2019-01-20T14:29:09.894Z,32.00
2019-01-20T14:31:38.473Z,29.80
2019-01-20T14:34:07.303Z,34.70
2019-01-20T14:36:55.164Z,30.50
2019-01-20T14:39:23.642Z,27.70
2019-01-20T14:41:52.396Z,42.53
2019-01-20T14:44:20.866Z,30.00
2019-01-20T14:46:49.389Z,26.10
2019-01-20T14:49:17.895Z,28.73
2019-01-20T14:52:05.700Z,34.85
2019-01-20T14:54:34.245Z,30.70
2019-01-20T14:57:22.073Z,34.35
2019-01-20T15:00:03.034Z,25.08
2019-01-20T15:02:31.596Z,28.20
2019-01-20T15:05:19.449Z,30.73
2019-01-20T15:08:07.563Z,29.43
2019-01-20T15:10:55.409Z,29.57
2019-01-20T15:13:43.207Z,27.13
2019-01-20T15:16:31.125Z,29.20
2019-01-20T15:19:19.001Z,24.43
2019-01-20T15:21:47.512Z,24.67
2019-01-20T15:24:15.962Z,27.87
2019-01-20T15:26:44.544Z,32.27
2019-01-20T15:29:32.348Z,28.97
2019-01-20T15:32:01.000Z,24.50
2019-01-20T15:34:29.461Z,28.00
2019-01-20T15:36:57.997Z,23.17
2019-01-20T15:39:45.931Z,28.53
2019-01-20T15:42:33.759Z,29.00
2019-01-20T15:45:02.388Z,35.28
2019-01-20T15:47:30.929Z,26.00
2019-01-20T15:50:00.424Z,33.23
2019-01-20T15:52:28.888Z,31.00
2019-01-20T15:58:10.701Z,27.23
2019-01-20T16:00:51.902Z,29.20
2019-01-20T16:03:20.414Z,29.70
2019-01-20T16:06:08.370Z,33.83
2019-01-20T16:08:36.870Z,37.27
2019-01-20T16:11:05.377Z,26.07
2019-01-20T16:13:33.941Z,30.63
2019-01-20T16:16:02.421Z,46.87
2019-01-20T16:18:50.317Z,33.00
2019-01-20T16:21:38.126Z,24.20
2019-01-20T16:24:26.031Z,28.33
2019-01-20T16:26:54.574Z,25.83
2019-01-20T16:29:42.438Z,30.90
2019-01-20T16:32:11.081Z,36.60
2019-01-20T16:34:39.613Z,32.30
2019-01-20T16:37:08.185Z,28.42
2019-01-20T16:39:36.727Z,70.20
2019-01-20T16:42:05.325Z,36.27
2019-01-20T16:44:34.124Z,29.72
2019-01-20T16:47:02.591Z,24.73
2019-01-20T16:49:31.063Z,29.17
2019-01-20T16:51:59.604Z,21.30
2019-01-20T16:54:28.086Z,26.63
2019-01-20T16:56:56.579Z,30.08
2019-01-20T16:59:44.476Z,32.87
2019-01-20T17:02:25.192Z,26.55
2019-01-20T17:05:06.143Z,30.80
2019-01-20T17:07:34.719Z,29.13
2019-01-20T17:10:04.829Z,27.57
2019-01-20T17:12:33.309Z,32.47
2019-01-20T17:15:01.816Z,27.37
2019-01-20T17:17:30.277Z,25.40
2019-01-20T17:19:58.743Z,27.48
2019-01-20T17:22:27.280Z,25.80
2019-01-20T17:24:55.744Z,21.93
2019-01-20T17:27:43.641Z,24.80
2019-01-20T17:30:15.423Z,26.90
2019-01-20T17:32:43.887Z,32.90
2019-01-20T17:35:12.532Z,26.23
2019-01-20T17:38:00.521Z,22.77
2019-01-20T17:40:48.478Z,26.23
2019-01-20T17:43:17.057Z,20.45
2019-01-20T17:45:49.627Z,21.77
2019-01-20T17:48:15.926Z,25.00
2019-01-20T17:50:44.669Z,25.90
2019-01-20T17:53:13.125Z,23.70
2019-01-20T17:56:00.983Z,24.27
2019-01-20T17:58:48.807Z,21.63
2019-01-20T18:04:11.067Z,24.63
2019-01-20T18:06:39.530Z,22.67
2019-01-20T18:09:10.008Z,27.90
2019-01-20T18:11:38.484Z,24.70
2019-01-20T18:14:07.250Z,27.33
2019-01-20T18:16:35.753Z,24.27
2019-01-20T18:19:23.554Z,29.33
2019-01-20T18:24:45.381Z,22.97
2019-01-20T18:27:33.214Z,23.83
2019-01-20T18:30:01.670Z,25.20
2019-01-20T18:35:24.512Z,27.52
2019-01-20T18:37:52.987Z,28.07
2019-01-20T18:40:22.825Z,28.95
2019-01-20T18:42:51.526Z,27.90
2019-01-20T18:45:22.600Z,34.43
2019-01-20T18:47:51.095Z,34.10
2019-01-20T18:50:27.900Z,31.50
2019-01-20T18:53:15.810Z,33.57
2019-01-20T18:55:44.331Z,39.17
2019-01-20T18:58:12.794Z,33.07
2019-01-20T19:00:46.273Z,40.40
2019-01-20T19:03:14.751Z,40.43
2019-01-20T19:05:43.219Z,56.13
2019-01-20T19:08:11.918Z,42.77
2019-01-20T19:10:40.397Z,39.67
2019-01-20T19:13:28.313Z,35.70
2019-01-20T19:16:16.173Z,40.57
2019-01-20T19:21:57.640Z,31.67
2019-01-20T19:24:26.173Z,35.00
2019-01-20T19:27:14.007Z,40.03
2019-01-20T19:29:42.546Z,43.00
2019-01-20T19:35:25.775Z,39.33
2019-01-20T19:38:13.703Z,40.63
2019-01-20T19:41:01.530Z,46.93
2019-01-20T19:43:30.113Z,42.33
2019-01-20T19:45:58.599Z,43.70
2019-01-20T19:48:27.177Z,46.35
2019-01-20T19:51:15.004Z,48.83
2019-01-20T19:53:43.605Z,47.00
2019-01-20T19:56:31.425Z,46.90
2019-01-20T19:59:19.323Z,41.13
2019-01-20T20:02:07.140Z,42.37
2019-01-20T20:04:35.734Z,46.00
2019-01-20T20:07:16.602Z,51.40
2019-01-20T20:09:56.954Z,37.60
2019-01-20T20:12:25.526Z,43.03
2019-01-20T20:14:54.004Z,46.20
2019-01-20T20:17:22.610Z,50.00
2019-01-20T20:20:31.274Z,46.97
2019-01-20T20:22:59.920Z,54.13
2019-01-20T20:25:28.445Z,46.43
2019-01-20T20:28:16.360Z,47.43
2019-01-20T20:31:04.242Z,50.30
2019-01-20T20:33:52.084Z,42.40
2019-01-20T20:36:20.617Z,41.03
2019-01-20T20:38:49.111Z,52.53
2019-01-20T20:41:37.018Z,47.78
2019-01-20T20:44:24.828Z,46.70
2019-01-20T20:47:12.735Z,48.50
2019-01-20T20:50:00.598Z,51.67
2019-01-20T20:52:48.471Z,47.70
2019-01-20T20:55:16.968Z,46.05
2019-01-20T20:58:04.983Z,47.83
2019-01-20T21:00:52.927Z,45.17
2019-01-20T21:03:21.499Z,48.03
2019-01-20T21:05:50.024Z,46.83
2019-01-20T21:08:18.595Z,51.83
2019-01-20T21:11:06.500Z,51.97
2019-01-20T21:13:34.991Z,49.60
2019-01-20T21:18:56.550Z,45.63
2019-01-20T21:21:44.362Z,49.80
2019-01-20T21:24:32.197Z,52.37
2019-01-20T21:27:20.018Z,55.90
2019-01-20T21:30:28.579Z,52.63
2019-01-20T21:33:16.430Z,53.43
2019-01-20T21:38:38.845Z,52.80
2019-01-20T21:41:07.469Z,48.03
2019-01-20T21:43:35.963Z,52.77
2019-01-20T21:46:04.538Z,53.93
2019-01-20T21:48:33.012Z,47.90
2019-01-20T21:51:01.468Z,56.90
2019-01-20T21:53:30.100Z,48.43
2019-01-20T21:56:17.933Z,49.83
2019-01-20T21:58:46.383Z,53.63
2019-01-20T22:01:14.853Z,55.80
2019-01-20T22:03:43.340Z,57.47
2019-01-20T22:06:24.239Z,54.10
2019-01-20T22:08:52.794Z,56.13
2019-01-20T22:11:21.297Z,50.93
2019-01-20T22:13:49.826Z,51.63
2019-01-20T22:16:38.366Z,54.83
2019-01-20T22:19:06.856Z,67.80
2019-01-20T22:21:54.654Z,52.27
2019-01-20T22:24:23.148Z,50.23
2019-01-20T22:26:51.650Z,43.70
2019-01-20T22:29:39.461Z,53.73
2019-01-20T22:35:01.910Z,47.37
2019-01-20T22:37:49.801Z,53.63
2019-01-20T22:40:19.121Z,54.07
2019-01-20T22:42:47.737Z,53.20
2019-01-20T22:45:35.590Z,53.83
2019-01-20T22:48:23.387Z,49.97
2019-01-20T22:51:11.217Z,51.97
2019-01-20T22:53:39.675Z,52.93
2019-01-20T22:56:08.245Z,55.33
2019-01-20T22:58:56.048Z,56.20
2019-01-20T23:01:24.795Z,56.30
2019-01-20T23:03:53.298Z,58.03
2019-01-20T23:06:41.156Z,55.57
2019-01-20T23:09:10.026Z,53.20
2019-01-20T23:11:38.631Z,51.33
2019-01-20T23:14:07.169Z,59.70
2019-01-20T23:16:35.868Z,59.70
2019-01-20T23:19:04.514Z,58.95
2019-01-20T23:21:52.332Z,53.80
2019-01-20T23:24:20.781Z,55.40
2019-01-20T23:27:08.605Z,69.70
2019-01-20T23:29:56.412Z,56.60
2019-01-20T23:32:24.952Z,58.65
2019-01-20T23:34:53.411Z,55.80
2019-01-20T23:37:41.243Z,60.87
2019-01-20T23:40:22.378Z,58.47
2019-01-20T23:42:50.954Z,59.27
2019-01-20T23:45:38.949Z,58.70
2019-01-20T23:48:26.753Z,57.30
2019-01-20T23:50:55.251Z,64.80
2019-01-20T23:53:43.393Z,59.90
2019-01-20T23:56:11.857Z,65.07
2019-01-20T23:58:40.313Z,58.80
